sensor_id;sensor_type;location;lat;lon;timestamp;temperature;humidity
40538;DHT22;27925;41.874;12.526;2022-11-15T02:49:18;10.70;95.30
40538;DHT22;27925;41.874;12.526;2022-11-15T02:51:46;10.70;96.20
40538;DHT22;27925;41.874;12.526;2022-11-15T02:54:26;10.60;96.20
40538;DHT22;27925;41.874;12.526;2022-11-15T02:57:05;10.70;96.20
40538;DHT22;27925;41.874;12.526;2022-11-15T03:05:20;10.50;95.30
40538;DHT22;27925;41.874;12.526;2022-11-15T03:07:48;10.40;96.10
40538;DHT22;27925;41.874;12.526;2022-11-15T03:10:32;10.40;96.10
40538;DHT22;27925;41.874;12.526;2022-11-15T03:16:04;10.40;95.40
40538;DHT22;27925;41.874;12.526;2022-11-15T03:18:49;10.40;96.10
40538;DHT22;27925;41.874;12.526;2022-11-15T03:21:19;10.40;96.20
40538;DHT22;27925;41.874;12.526;2022-11-15T03:23:47;10.40;96.20
40538;DHT22;27925;41.874;12.526;2022-11-15T03:26:16;10.40;96.10
40538;DHT22;27925;41.874;12.526;2022-11-15T03:28:53;10.40;96.10
40538;DHT22;27925;41.874;12.526;2022-11-15T03:31:22;10.40;96.00
40538;DHT22;27925;41.874;12.526;2022-11-15T03:34:08;10.40;96.10
40538;DHT22;27925;41.874;12.526;2022-11-15T03:36:36;10.40;96.10
40538;DHT22;27925;41.874;12.526;2022-11-15T03:39:05;10.30;96.00
40538;DHT22;27925;41.874;12.526;2022-11-15T03:41:48;10.30;96.00
40538;DHT22;27925;41.874;12.526;2022-11-15T03:50:21;10.30;94.90
40538;DHT22;27925;41.874;12.526;2022-11-15T03:52:48;10.30;95.80
40538;DHT22;27925;41.874;12.526;2022-11-15T03:55:17;10.30;95.80
40538;DHT22;27925;41.874;12.526;2022-11-15T03:57:44;10.40;95.80
40538;DHT22;27925;41.874;12.526;2022-11-15T04:00:11;10.40;95.70
40538;DHT22;27925;41.874;12.526;2022-11-15T04:02:36;10.40;95.40
40538;DHT22;27925;41.874;12.526;2022-11-15T04:05:03;10.40;95.50
40538;DHT22;27925;41.874;12.526;2022-11-15T04:07:29;10.40;95.50
40538;DHT22;27925;41.874;12.526;2022-11-15T04:09:55;10.50;95.50
40538;DHT22;27925;41.874;12.526;2022-11-15T04:12:35;10.60;94.90
40538;DHT22;27925;41.874;12.526;2022-11-15T04:15:07;10.60;95.50
40538;DHT22;27925;41.874;12.526;2022-11-15T04:17:54;10.60;95.30
40538;DHT22;27925;41.874;12.526;2022-11-15T04:20:28;10.60;95.50
40538;DHT22;27925;41.874;12.526;2022-11-15T04:23:18;10.70;95.40
40538;DHT22;27925;41.874;12.526;2022-11-15T04:28:33;10.70;95.10
40538;DHT22;27925;41.874;12.526;2022-11-15T04:30:59;10.70;95.10
40538;DHT22;27925;41.874;12.526;2022-11-15T04:33:25;10.70;95.10
40538;DHT22;27925;41.874;12.526;2022-11-15T04:35:51;10.70;95.20
40538;DHT22;27925;41.874;12.526;2022-11-15T04:38:36;10.70;94.70
40538;DHT22;27925;41.874;12.526;2022-11-15T04:41:02;10.70;95.40
40538;DHT22;27925;41.874;12.526;2022-11-15T04:43:29;10.70;95.10
40538;DHT22;27925;41.874;12.526;2022-11-15T04:45:55;10.70;95.20
40538;DHT22;27925;41.874;12.526;2022-11-15T04:48:20;10.70;95.20
40538;DHT22;27925;41.874;12.526;2022-11-15T04:50:49;10.70;95.10
40538;DHT22;27925;41.874;12.526;2022-11-15T04:53:15;10.70;95.10
40538;DHT22;27925;41.874;12.526;2022-11-15T04:55:44;10.60;95.10
40538;DHT22;27925;41.874;12.526;2022-11-15T04:58:10;10.60;95.30
40538;DHT22;27925;41.874;12.526;2022-11-15T05:00:36;10.50;95.10
40538;DHT22;27925;41.874;12.526;2022-11-15T05:03:02;10.60;95.20
40538;DHT22;27925;41.874;12.526;2022-11-15T05:05:45;10.60;94.70
40538;DHT22;27925;41.874;12.526;2022-11-15T05:08:11;10.60;95.20
40538;DHT22;27925;41.874;12.526;2022-11-15T05:10:37;10.70;95.40
40538;DHT22;27925;41.874;12.526;2022-11-15T05:13:03;10.70;95.20
40538;DHT22;27925;41.874;12.526;2022-11-15T05:15:28;10.80;95.10
40538;DHT22;27925;41.874;12.526;2022-11-15T05:17:58;10.90;95.20
40538;DHT22;27925;41.874;12.526;2022-11-15T05:20:25;10.90;95.30
40538;DHT22;27925;41.874;12.526;2022-11-15T05:22:50;10.90;95.10
40538;DHT22;27925;41.874;12.526;2022-11-15T05:25:16;10.90;95.10
40538;DHT22;27925;41.874;12.526;2022-11-15T05:27:42;10.80;95.10
40538;DHT22;27925;41.874;12.526;2022-11-15T05:30:08;10.80;95.10
40538;DHT22;27925;41.874;12.526;2022-11-15T05:32:34;10.80;95.00
40538;DHT22;27925;41.874;12.526;2022-11-15T05:34:59;10.80;95.10
40538;DHT22;27925;41.874;12.526;2022-11-15T05:37:25;10.70;95.10
40538;DHT22;27925;41.874;12.526;2022-11-15T05:39:51;10.60;95.00
40538;DHT22;27925;41.874;12.526;2022-11-15T05:42:17;10.60;95.10
40538;DHT22;27925;41.874;12.526;2022-11-15T05:44:47;10.60;95.20
40538;DHT22;27925;41.874;12.526;2022-11-15T05:47:20;10.60;95.60
40538;DHT22;27925;41.874;12.526;2022-11-15T05:49:48;10.60;94.40
40538;DHT22;27925;41.874;12.526;2022-11-15T05:52:17;10.60;95.20
40538;DHT22;27925;41.874;12.526;2022-11-15T05:54:44;10.60;95.20
40538;DHT22;27925;41.874;12.526;2022-11-15T05:57:10;10.60;95.10
40538;DHT22;27925;41.874;12.526;2022-11-15T05:59:36;10.60;95.10
40538;DHT22;27925;41.874;12.526;2022-11-15T06:02:02;10.50;95.00
40538;DHT22;27925;41.874;12.526;2022-11-15T06:04:27;10.40;95.00
40538;DHT22;27925;41.874;12.526;2022-11-15T06:06:53;10.40;95.00
40538;DHT22;27925;41.874;12.526;2022-11-15T06:09:19;10.50;95.20
40538;DHT22;27925;41.874;12.526;2022-11-15T06:11:45;10.50;95.20
40538;DHT22;27925;41.874;12.526;2022-11-15T06:14:10;10.50;95.10
40538;DHT22;27925;41.874;12.526;2022-11-15T06:16:36;10.50;95.40
40538;DHT22;27925;41.874;12.526;2022-11-15T06:19:02;10.60;95.30
40538;DHT22;27925;41.874;12.526;2022-11-15T06:21:28;10.70;95.10
40538;DHT22;27925;41.874;12.526;2022-11-15T06:23:54;10.70;95.10
40538;DHT22;27925;41.874;12.526;2022-11-15T06:26:20;10.70;94.90
40538;DHT22;27925;41.874;12.526;2022-11-15T06:28:46;10.80;95.00
40538;DHT22;27925;41.874;12.526;2022-11-15T06:31:11;10.80;94.90
40538;DHT22;27925;41.874;12.526;2022-11-15T06:33:38;10.80;94.90
40538;DHT22;27925;41.874;12.526;2022-11-15T06:36:06;10.80;95.10
40538;DHT22;27925;41.874;12.526;2022-11-15T06:38:32;10.80;95.00
40538;DHT22;27925;41.874;12.526;2022-11-15T06:41:05;10.90;94.90
40538;DHT22;27925;41.874;12.526;2022-11-15T06:43:32;11.00;94.10
40538;DHT22;27925;41.874;12.526;2022-11-15T06:46:02;11.00;94.90
40538;DHT22;27925;41.874;12.526;2022-11-15T06:48:29;11.10;95.00
40538;DHT22;27925;41.874;12.526;2022-11-15T06:50:57;11.20;95.00
40538;DHT22;27925;41.874;12.526;2022-11-15T06:53:24;11.20;94.90
40538;DHT22;27925;41.874;12.526;2022-11-15T06:55:50;11.20;94.90
40538;DHT22;27925;41.874;12.526;2022-11-15T06:58:16;11.30;94.70
40538;DHT22;27925;41.874;12.526;2022-11-15T07:00:42;11.40;94.70
40538;DHT22;27925;41.874;12.526;2022-11-15T07:03:08;11.50;94.70
40538;DHT22;27925;41.874;12.526;2022-11-15T07:05:33;11.60;94.70
40538;DHT22;27925;41.874;12.526;2022-11-15T07:07:59;11.60;94.50
40538;DHT22;27925;41.874;12.526;2022-11-15T07:10:25;11.60;94.30
40538;DHT22;27925;41.874;12.526;2022-11-15T07:12:52;11.60;94.50
40538;DHT22;27925;41.874;12.526;2022-11-15T07:15:19;11.70;94.60
40538;DHT22;27925;41.874;12.526;2022-11-15T07:17:45;11.80;94.40
40538;DHT22;27925;41.874;12.526;2022-11-15T07:20:11;11.90;94.00
40538;DHT22;27925;41.874;12.526;2022-11-15T07:22:39;11.90;94.00
40538;DHT22;27925;41.874;12.526;2022-11-15T07:25:05;12.00;94.00
40538;DHT22;27925;41.874;12.526;2022-11-15T07:27:31;12.00;93.80
40538;DHT22;27925;41.874;12.526;2022-11-15T07:29:56;12.00;93.70
40538;DHT22;27925;41.874;12.526;2022-11-15T07:32:22;12.00;93.60
40538;DHT22;27925;41.874;12.526;2022-11-15T07:34:48;12.00;93.70
40538;DHT22;27925;41.874;12.526;2022-11-15T07:37:14;12.00;93.50
40538;DHT22;27925;41.874;12.526;2022-11-15T07:39:39;12.00;93.50
40538;DHT22;27925;41.874;12.526;2022-11-15T07:42:05;12.00;93.40
40538;DHT22;27925;41.874;12.526;2022-11-15T07:44:49;12.00;93.00
40538;DHT22;27925;41.874;12.526;2022-11-15T07:47:15;12.10;93.50
40538;DHT22;27925;41.874;12.526;2022-11-15T07:49:40;12.10;93.40
40538;DHT22;27925;41.874;12.526;2022-11-15T07:52:06;12.20;93.30
40538;DHT22;27925;41.874;12.526;2022-11-15T07:54:32;12.20;93.30
40538;DHT22;27925;41.874;12.526;2022-11-15T07:56:58;12.20;93.20
40538;DHT22;27925;41.874;12.526;2022-11-15T07:59:23;12.20;93.10
40538;DHT22;27925;41.874;12.526;2022-11-15T08:01:49;12.20;93.10
40538;DHT22;27925;41.874;12.526;2022-11-15T08:04:15;12.20;93.00
40538;DHT22;27925;41.874;12.526;2022-11-15T08:06:40;12.20;93.20
40538;DHT22;27925;41.874;12.526;2022-11-15T08:09:06;12.10;93.00
40538;DHT22;27925;41.874;12.526;2022-11-15T08:11:32;12.20;93.40
40538;DHT22;27925;41.874;12.526;2022-11-15T08:13:58;12.20;93.20
40538;DHT22;27925;41.874;12.526;2022-11-15T08:16:24;12.20;93.20
40538;DHT22;27925;41.874;12.526;2022-11-15T08:18:49;12.20;93.20
40538;DHT22;27925;41.874;12.526;2022-11-15T08:21:19;12.10;93.10
40538;DHT22;27925;41.874;12.526;2022-11-15T08:23:45;12.10;93.30
40538;DHT22;27925;41.874;12.526;2022-11-15T08:26:11;12.10;93.20
40538;DHT22;27925;41.874;12.526;2022-11-15T08:28:37;12.20;93.00
40538;DHT22;27925;41.874;12.526;2022-11-15T08:31:04;12.30;93.10
40538;DHT22;27925;41.874;12.526;2022-11-15T08:33:30;12.30;93.00
40538;DHT22;27925;41.874;12.526;2022-11-15T08:35:57;12.40;92.90
40538;DHT22;27925;41.874;12.526;2022-11-15T08:38:23;12.50;92.60
40538;DHT22;27925;41.874;12.526;2022-11-15T08:40:51;12.60;92.70
